sensor_id;sensor_type;location;lat;lon;timestamp;P1;durP1;ratioP1;P2;durP2;ratioP2
17935;SDS011;9093;52.062;4.508;2023-07-02T00:00:29;5.80;;;2.13;;
17935;SDS011;9093;52.062;4.508;2023-07-02T00:03:09;11.52;;;3.08;;
17935;SDS011;9093;52.062;4.508;2023-07-02T00:05:50;15.85;;;3.28;;
17935;SDS011;9093;52.062;4.508;2023-07-02T00:08:31;7.47;;;2.75;;
17935;SDS011;9093;52.062;4.508;2023-07-02T00:11:11;13.45;;;2.70;;
17935;SDS011;9093;52.062;4.508;2023-07-02T00:13:52;14.27;;;3.30;;
17935;SDS011;9093;52.062;4.508;2023-07-02T00:16:32;13.45;;;3.95;;
17935;SDS011;9093;52.062;4.508;2023-07-02T00:19:13;12.63;;;2.85;;
17935;SDS011;9093;52.062;4.508;2023-07-02T00:21:54;13.00;;;3.33;;
17935;SDS011;9093;52.062;4.508;2023-07-02T00:24:35;19.33;;;3.47;;
17935;SDS011;9093;52.062;4.508;2023-07-02T00:27:16;10.25;;;3.03;;
17935;SDS011;9093;52.062;4.508;2023-07-02T00:29:56;12.02;;;3.20;;
17935;SDS011;9093;52.062;4.508;2023-07-02T00:32:36;11.50;;;2.73;;
17935;SDS011;9093;52.062;4.508;2023-07-02T00:35:17;5.63;;;2.60;;
17935;SDS011;9093;52.062;4.508;2023-07-02T00:37:57;7.07;;;2.97;;
17935;SDS011;9093;52.062;4.508;2023-07-02T00:40:37;8.35;;;3.20;;
17935;SDS011;9093;52.062;4.508;2023-07-02T00:43:18;6.95;;;2.40;;
17935;SDS011;9093;52.062;4.508;2023-07-02T00:45:58;8.90;;;3.08;;
17935;SDS011;9093;52.062;4.508;2023-07-02T00:48:38;9.05;;;3.15;;
17935;SDS011;9093;52.062;4.508;2023-07-02T00:51:22;15.23;;;4.07;;
17935;SDS011;9093;52.062;4.508;2023-07-02T00:54:06;13.18;;;3.45;;
17935;SDS011;9093;52.062;4.508;2023-07-02T00:56:48;13.07;;;2.92;;
17935;SDS011;9093;52.062;4.508;2023-07-02T00:59:29;10.93;;;3.45;;
17935;SDS011;9093;52.062;4.508;2023-07-02T01:02:10;11.90;;;3.55;;
17935;SDS011;9093;52.062;4.508;2023-07-02T01:04:53;14.05;;;4.07;;
17935;SDS011;9093;52.062;4.508;2023-07-02T01:07:37;14.32;;;3.38;;
17935;SDS011;9093;52.062;4.508;2023-07-02T01:10:17;5.35;;;2.95;;
17935;SDS011;9093;52.062;4.508;2023-07-02T01:13:04;12.75;;;3.55;;
17935;SDS011;9093;52.062;4.508;2023-07-02T01:15:50;16.57;;;3.77;;
17935;SDS011;9093;52.062;4.508;2023-07-02T01:18:31;12.60;;;4.07;;
17935;SDS011;9093;52.062;4.508;2023-07-02T01:21:11;14.80;;;3.58;;
17935;SDS011;9093;52.062;4.508;2023-07-02T01:23:52;7.82;;;3.38;;
17935;SDS011;9093;52.062;4.508;2023-07-02T01:26:32;8.40;;;2.95;;
17935;SDS011;9093;52.062;4.508;2023-07-02T01:29:17;6.80;;;3.05;;
17935;SDS011;9093;52.062;4.508;2023-07-02T01:31:59;9.07;;;3.25;;
17935;SDS011;9093;52.062;4.508;2023-07-02T01:34:39;12.52;;;3.03;;
17935;SDS011;9093;52.062;4.508;2023-07-02T01:37:20;15.30;;;4.88;;
17935;SDS011;9093;52.062;4.508;2023-07-02T01:40:00;8.48;;;2.95;;
17935;SDS011;9093;52.062;4.508;2023-07-02T01:42:41;14.63;;;3.67;;
17935;SDS011;9093;52.062;4.508;2023-07-02T01:45:21;7.17;;;2.67;;
17935;SDS011;9093;52.062;4.508;2023-07-02T01:48:01;12.05;;;3.58;;
17935;SDS011;9093;52.062;4.508;2023-07-02T01:50:41;10.93;;;3.38;;
17935;SDS011;9093;52.062;4.508;2023-07-02T01:53:22;13.90;;;3.55;;
17935;SDS011;9093;52.062;4.508;2023-07-02T01:56:02;10.18;;;3.08;;
17935;SDS011;9093;52.062;4.508;2023-07-02T01:58:42;13.93;;;3.70;;
17935;SDS011;9093;52.062;4.508;2023-07-02T02:01:23;7.72;;;3.63;;
17935;SDS011;9093;52.062;4.508;2023-07-02T02:04:03;12.00;;;2.83;;
17935;SDS011;9093;52.062;4.508;2023-07-02T02:06:43;11.35;;;3.55;;
17935;SDS011;9093;52.062;4.508;2023-07-02T02:09:24;7.13;;;3.33;;
17935;SDS011;9093;52.062;4.508;2023-07-02T02:12:04;18.98;;;4.70;;
17935;SDS011;9093;52.062;4.508;2023-07-02T02:14:45;16.15;;;3.35;;
17935;SDS011;9093;52.062;4.508;2023-07-02T02:17:25;12.77;;;3.50;;
17935;SDS011;9093;52.062;4.508;2023-07-02T02:20:06;10.55;;;3.22;;
17935;SDS011;9093;52.062;4.508;2023-07-02T02:22:48;9.27;;;3.50;;
17935;SDS011;9093;52.062;4.508;2023-07-02T02:25:28;12.27;;;3.50;;
17935;SDS011;9093;52.062;4.508;2023-07-02T02:28:08;18.75;;;3.85;;
17935;SDS011;9093;52.062;4.508;2023-07-02T02:30:49;11.23;;;3.43;;
17935;SDS011;9093;52.062;4.508;2023-07-02T02:33:29;20.73;;;3.83;;
17935;SDS011;9093;52.062;4.508;2023-07-02T02:36:10;12.15;;;4.10;;
17935;SDS011;9093;52.062;4.508;2023-07-02T02:38:50;13.90;;;4.20;;
17935;SDS011;9093;52.062;4.508;2023-07-02T02:41:30;20.10;;;3.95;;
17935;SDS011;9093;52.062;4.508;2023-07-02T02:44:11;13.27;;;3.10;;
17935;SDS011;9093;52.062;4.508;2023-07-02T02:46:51;12.90;;;3.38;;
17935;SDS011;9093;52.062;4.508;2023-07-02T02:49:31;10.75;;;3.80;;
17935;SDS011;9093;52.062;4.508;2023-07-02T02:52:12;11.55;;;3.58;;
17935;SDS011;9093;52.062;4.508;2023-07-02T02:54:54;16.85;;;3.53;;
17935;SDS011;9093;52.062;4.508;2023-07-02T02:57:34;13.10;;;4.18;;
17935;SDS011;9093;52.062;4.508;2023-07-02T03:00:15;14.23;;;3.70;;
17935;SDS011;9093;52.062;4.508;2023-07-02T03:02:57;19.15;;;4.03;;
17935;SDS011;9093;52.062;4.508;2023-07-02T03:05:38;9.15;;;3.17;;
17935;SDS011;9093;52.062;4.508;2023-07-02T03:08:18;14.90;;;3.13;;
17935;SDS011;9093;52.062;4.508;2023-07-02T03:10:58;18.92;;;4.18;;
17935;SDS011;9093;52.062;4.508;2023-07-02T03:13:39;19.58;;;4.10;;
17935;SDS011;9093;52.062;4.508;2023-07-02T03:16:19;13.65;;;3.15;;
17935;SDS011;9093;52.062;4.508;2023-07-02T03:19:02;9.40;;;3.78;;
17935;SDS011;9093;52.062;4.508;2023-07-02T03:21:45;12.77;;;3.80;;
17935;SDS011;9093;52.062;4.508;2023-07-02T03:24:25;7.90;;;2.80;;
17935;SDS011;9093;52.062;4.508;2023-07-02T03:27:06;11.20;;;3.20;;
17935;SDS011;9093;52.062;4.508;2023-07-02T03:29:46;16.23;;;3.97;;
17935;SDS011;9093;52.062;4.508;2023-07-02T03:32:26;11.05;;;3.28;;
17935;SDS011;9093;52.062;4.508;2023-07-02T03:35:07;10.43;;;2.80;;
17935;SDS011;9093;52.062;4.508;2023-07-02T03:37:47;12.60;;;3.40;;
17935;SDS011;9093;52.062;4.508;2023-07-02T03:40:27;15.10;;;3.97;;
17935;SDS011;9093;52.062;4.508;2023-07-02T03:43:08;17.17;;;3.57;;
17935;SDS011;9093;52.062;4.508;2023-07-02T03:45:48;10.48;;;3.10;;
17935;SDS011;9093;52.062;4.508;2023-07-02T03:48:28;10.03;;;3.53;;
17935;SDS011;9093;52.062;4.508;2023-07-02T03:51:09;13.20;;;3.30;;
17935;SDS011;9093;52.062;4.508;2023-07-02T03:53:52;15.57;;;3.10;;
17935;SDS011;9093;52.062;4.508;2023-07-02T03:56:32;12.57;;;2.80;;
17935;SDS011;9093;52.062;4.508;2023-07-02T03:59:13;7.70;;;3.05;;
17935;SDS011;9093;52.062;4.508;2023-07-02T04:01:53;10.73;;;3.00;;
17935;SDS011;9093;52.062;4.508;2023-07-02T04:04:34;8.15;;;3.10;;
17935;SDS011;9093;52.062;4.508;2023-07-02T04:07:17;13.00;;;3.35;;
17935;SDS011;9093;52.062;4.508;2023-07-02T04:09:58;13.15;;;2.92;;
17935;SDS011;9093;52.062;4.508;2023-07-02T04:12:38;13.68;;;3.05;;
17935;SDS011;9093;52.062;4.508;2023-07-02T04:15:18;6.85;;;2.65;;
17935;SDS011;9093;52.062;4.508;2023-07-02T04:17:59;9.68;;;2.67;;
17935;SDS011;9093;52.062;4.508;2023-07-02T04:20:39;18.92;;;3.10;;
17935;SDS011;9093;52.062;4.508;2023-07-02T04:23:19;12.80;;;2.92;;
17935;SDS011;9093;52.062;4.508;2023-07-02T04:26:00;6.25;;;2.78;;
17935;SDS011;9093;52.062;4.508;2023-07-02T04:28:40;9.60;;;3.15;;
17935;SDS011;9093;52.062;4.508;2023-07-02T04:31:20;11.88;;;2.78;;
17935;SDS011;9093;52.062;4.508;2023-07-02T04:34:01;9.23;;;2.85;;
17935;SDS011;9093;52.062;4.508;2023-07-02T04:36:41;10.17;;;2.83;;
17935;SDS011;9093;52.062;4.508;2023-07-02T04:39:23;11.32;;;2.80;;
17935;SDS011;9093;52.062;4.508;2023-07-02T04:42:03;12.50;;;2.90;;
17935;SDS011;9093;52.062;4.508;2023-07-02T04:44:44;8.45;;;2.80;;
17935;SDS011;9093;52.062;4.508;2023-07-02T04:47:24;12.13;;;2.70;;
17935;SDS011;9093;52.062;4.508;2023-07-02T04:50:04;5.97;;;2.60;;
17935;SDS011;9093;52.062;4.508;2023-07-02T04:52:45;7.68;;;3.28;;
17935;SDS011;9093;52.062;4.508;2023-07-02T04:55:26;6.55;;;2.35;;
17935;SDS011;9093;52.062;4.508;2023-07-02T04:58:07;10.68;;;2.97;;
17935;SDS011;9093;52.062;4.508;2023-07-02T05:00:47;12.00;;;2.90;;
17935;SDS011;9093;52.062;4.508;2023-07-02T05:03:28;6.55;;;2.40;;
17935;SDS011;9093;52.062;4.508;2023-07-02T05:06:08;9.32;;;2.67;;
17935;SDS011;9093;52.062;4.508;2023-07-02T05:08:48;8.20;;;1.95;;
17935;SDS011;9093;52.062;4.508;2023-07-02T05:11:28;8.85;;;2.60;;
17935;SDS011;9093;52.062;4.508;2023-07-02T05:14:09;12.32;;;3.17;;
17935;SDS011;9093;52.062;4.508;2023-07-02T05:16:49;9.32;;;2.97;;
17935;SDS011;9093;52.062;4.508;2023-07-02T05:19:30;8.68;;;2.58;;
17935;SDS011;9093;52.062;4.508;2023-07-02T05:22:10;11.50;;;2.60;;
17935;SDS011;9093;52.062;4.508;2023-07-02T05:24:50;11.85;;;2.58;;
17935;SDS011;9093;52.062;4.508;2023-07-02T05:27:31;14.40;;;2.80;;
17935;SDS011;9093;52.062;4.508;2023-07-02T05:30:11;13.40;;;2.47;;
17935;SDS011;9093;52.062;4.508;2023-07-02T05:32:52;10.70;;;2.95;;
17935;SDS011;9093;52.062;4.508;2023-07-02T05:35:32;9.30;;;2.58;;
17935;SDS011;9093;52.062;4.508;2023-07-02T05:38:13;10.27;;;2.53;;
17935;SDS011;9093;52.062;4.508;2023-07-02T05:40:53;8.70;;;2.50;;
17935;SDS011;9093;52.062;4.508;2023-07-02T05:43:33;11.97;;;3.10;;
17935;SDS011;9093;52.062;4.508;2023-07-02T05:46:14;11.18;;;3.25;;
17935;SDS011;9093;52.062;4.508;2023-07-02T05:48:55;9.65;;;3.08;;
17935;SDS011;9093;52.062;4.508;2023-07-02T05:51:39;8.45;;;2.90;;
17935;SDS011;9093;52.062;4.508;2023-07-02T05:54:20;9.65;;;3.20;;
17935;SDS011;9093;52.062;4.508;2023-07-02T05:57:00;11.55;;;2.97;;
17935;SDS011;9093;52.062;4.508;2023-07-02T05:59:40;15.60;;;2.78;;
17935;SDS011;9093;52.062;4.508;2023-07-02T06:02:21;12.75;;;2.92;;
17935;SDS011;9093;52.062;4.508;2023-07-02T06:05:01;7.95;;;2.70;;
17935;SDS011;9093;52.062;4.508;2023-07-02T06:07:41;14.15;;;2.50;;
17935;SDS011;9093;52.062;4.508;2023-07-02T06:10:22;14.50;;;3.23;;
17935;SDS011;9093;52.062;4.508;2023-07-02T06:13:02;8.10;;;2.88;;
17935;SDS011;9093;52.062;4.508;2023-07-02T06:15:42;8.73;;;2.17;;
17935;SDS011;9093;52.062;4.508;2023-07-02T06:18:23;7.90;;;1.92;;
17935;SDS011;9093;52.062;4.508;2023-07-02T06:21:03;11.60;;;3.13;;
17935;SDS011;9093;52.062;4.508;2023-07-02T06:23:44;7.28;;;2.22;;
17935;SDS011;9093;52.062;4.508;2023-07-02T06:26:24;12.27;;;2.47;;
17935;SDS011;9093;52.062;4.508;2023-07-02T06:29:04;11.82;;;2.55;;
17935;SDS011;9093;52.062;4.508;2023-07-02T06:31:45;9.80;;;2.58;;
17935;SDS011;9093;52.062;4.508;2023-07-02T06:34:25;6.05;;;2.15;;
17935;SDS011;9093;52.062;4.508;2023-07-02T06:37:05;7.68;;;2.47;;
17935;SDS011;9093;52.062;4.508;2023-07-02T06:39:46;9.65;;;2.65;;
17935;SDS011;9093;52.062;4.508;2023-07-02T06:42:26;8.63;;;2.75;;
17935;SDS011;9093;52.062;4.508;2023-07-02T06:45:06;9.27;;;2.78;;
17935;SDS011;9093;52.062;4.508;2023-07-02T06:47:47;8.07;;;2.72;;
17935;SDS011;9093;52.062;4.508;2023-07-02T06:50:27;13.88;;;2.33;;
17935;SDS011;9093;52.062;4.508;2023-07-02T06:53:08;8.65;;;2.83;;
17935;SDS011;9093;52.062;4.508;2023-07-02T06:55:48;12.57;;;2.60;;
17935;SDS011;9093;52.062;4.508;2023-07-02T06:58:30;10.02;;;2.40;;
17935;SDS011;9093;52.062;4.508;2023-07-02T07:01:10;7.75;;;2.85;;
17935;SDS011;9093;52.062;4.508;2023-07-02T07:03:51;12.90;;;2.80;;
17935;SDS011;9093;52.062;4.508;2023-07-02T07:06:31;12.00;;;2.53;;
17935;SDS011;9093;52.062;4.508;2023-07-02T07:09:12;8.47;;;2.53;;
17935;SDS011;9093;52.062;4.508;2023-07-02T07:11:52;8.65;;;2.33;;
17935;SDS011;9093;52.062;4.508;2023-07-02T07:14:32;8.15;;;2.55;;
17935;SDS011;9093;52.062;4.508;2023-07-02T07:17:13;6.72;;;2.50;;
17935;SDS011;9093;52.062;4.508;2023-07-02T07:19:53;9.93;;;2.17;;
17935;SDS011;9093;52.062;4.508;2023-07-02T07:22:33;6.65;;;2.72;;
17935;SDS011;9093;52.062;4.508;2023-07-02T07:25:14;13.23;;;2.85;;
17935;SDS011;9093;52.062;4.508;2023-07-02T07:27:54;7.20;;;2.40;;
17935;SDS011;9093;52.062;4.508;2023-07-02T07:30:35;12.73;;;2.60;;
17935;SDS011;9093;52.062;4.508;2023-07-02T07:33:15;5.20;;;2.30;;
17935;SDS011;9093;52.062;4.508;2023-07-02T07:35:55;9.68;;;2.30;;
17935;SDS011;9093;52.062;4.508;2023-07-02T07:38:36;12.33;;;2.50;;
17935;SDS011;9093;52.062;4.508;2023-07-02T07:41:16;12.52;;;2.55;;
17935;SDS011;9093;52.062;4.508;2023-07-02T07:43:56;12.40;;;3.40;;
17935;SDS011;9093;52.062;4.508;2023-07-02T07:46:38;7.57;;;2.63;;
17935;SDS011;9093;52.062;4.508;2023-07-02T07:49:18;5.47;;;2.30;;
17935;SDS011;9093;52.062;4.508;2023-07-02T07:51:58;10.52;;;2.83;;
17935;SDS011;9093;52.062;4.508;2023-07-02T07:54:39;10.43;;;2.70;;
17935;SDS011;9093;52.062;4.508;2023-07-02T07:57:19;15.88;;;2.92;;
17935;SDS011;9093;52.062;4.508;2023-07-02T07:59:59;8.35;;;2.25;;
17935;SDS011;9093;52.062;4.508;2023-07-02T08:02:39;6.80;;;2.65;;
17935;SDS011;9093;52.062;4.508;2023-07-02T08:05:20;5.63;;;2.38;;
17935;SDS011;9093;52.062;4.508;2023-07-02T08:08:00;9.00;;;2.15;;
17935;SDS011;9093;52.062;4.508;2023-07-02T08:10:40;9.95;;;2.22;;
17935;SDS011;9093;52.062;4.508;2023-07-02T08:13:21;4.60;;;1.88;;
17935;SDS011;9093;52.062;4.508;2023-07-02T08:16:01;8.32;;;2.08;;
17935;SDS011;9093;52.062;4.508;2023-07-02T08:18:41;5.95;;;1.80;;
17935;SDS011;9093;52.062;4.508;2023-07-02T08:21:22;7.20;;;2.28;;
17935;SDS011;9093;52.062;4.508;2023-07-02T08:24:02;10.90;;;1.90;;
17935;SDS011;9093;52.062;4.508;2023-07-02T08:26:43;8.05;;;2.47;;
17935;SDS011;9093;52.062;4.508;2023-07-02T08:29:24;6.22;;;1.85;;
17935;SDS011;9093;52.062;4.508;2023-07-02T08:32:05;7.65;;;1.98;;
17935;SDS011;9093;52.062;4.508;2023-07-02T08:34:45;8.52;;;3.40;;
17935;SDS011;9093;52.062;4.508;2023-07-02T08:37:26;16.67;;;3.13;;
17935;SDS011;9093;52.062;4.508;2023-07-02T08:40:14;6.65;;;2.15;;
17935;SDS011;9093;52.062;4.508;2023-07-02T08:42:56;8.50;;;2.13;;
17935;SDS011;9093;52.062;4.508;2023-07-02T08:45:36;12.82;;;2.35;;
17935;SDS011;9093;52.062;4.508;2023-07-02T08:48:17;7.95;;;1.85;;
17935;SDS011;9093;52.062;4.508;2023-07-02T08:51:02;12.65;;;2.75;;
17935;SDS011;9093;52.062;4.508;2023-07-02T08:53:43;12.57;;;2.20;;
17935;SDS011;9093;52.062;4.508;2023-07-02T08:56:23;7.00;;;2.88;;
17935;SDS011;9093;52.062;4.508;2023-07-02T08:59:06;8.52;;;2.05;;
17935;SDS011;9093;52.062;4.508;2023-07-02T09:01:48;7.57;;;2.08;;
17935;SDS011;9093;52.062;4.508;2023-07-02T09:04:29;4.13;;;1.83;;
17935;SDS011;9093;52.062;4.508;2023-07-02T09:07:10;7.85;;;2.42;;
17935;SDS011;9093;52.062;4.508;2023-07-02T09:09:51;10.07;;;2.80;;
17935;SDS011;9093;52.062;4.508;2023-07-02T09:12:31;5.57;;;1.88;;
17935;SDS011;9093;52.062;4.508;2023-07-02T09:15:13;5.78;;;1.80;;
17935;SDS011;9093;52.062;4.508;2023-07-02T09:17:54;4.40;;;2.10;;
17935;SDS011;9093;52.062;4.508;2023-07-02T09:20:34;6.47;;;1.85;;
17935;SDS011;9093;52.062;4.508;2023-07-02T09:23:14;10.88;;;2.20;;
17935;SDS011;9093;52.062;4.508;2023-07-02T09:25:55;4.60;;;2.00;;
17935;SDS011;9093;52.062;4.508;2023-07-02T09:28:35;5.72;;;1.92;;
17935;SDS011;9093;52.062;4.508;2023-07-02T09:31:15;6.50;;;1.70;;
17935;SDS011;9093;52.062;4.508;2023-07-02T09:34:01;9.32;;;2.40;;
17935;SDS011;9093;52.062;4.508;2023-07-02T09:36:41;6.28;;;2.13;;
17935;SDS011;9093;52.062;4.508;2023-07-02T09:39:25;4.95;;;2.00;;
17935;SDS011;9093;52.062;4.508;2023-07-02T09:42:08;8.75;;;2.35;;
17935;SDS011;9093;52.062;4.508;2023-07-02T09:44:54;7.28;;;1.55;;
17935;SDS011;9093;52.062;4.508;2023-07-02T09:47:40;5.28;;;1.80;;
17935;SDS011;9093;52.062;4.508;2023-07-02T09:50:27;6.65;;;1.63;;
17935;SDS011;9093;52.062;4.508;2023-07-02T09:53:08;6.03;;;2.30;;
17935;SDS011;9093;52.062;4.508;2023-07-02T09:55:48;7.32;;;1.80;;
17935;SDS011;9093;52.062;4.508;2023-07-02T09:58:29;7.13;;;2.10;;
17935;SDS011;9093;52.062;4.508;2023-07-02T10:01:11;7.95;;;1.90;;
17935;SDS011;9093;52.062;4.508;2023-07-02T10:03:52;11.48;;;1.85;;
17935;SDS011;9093;52.062;4.508;2023-07-02T10:06:43;4.22;;;1.50;;
17935;SDS011;9093;52.062;4.508;2023-07-02T10:09:37;6.28;;;1.55;;
17935;SDS011;9093;52.062;4.508;2023-07-02T10:12:26;4.90;;;2.03;;
17935;SDS011;9093;52.062;4.508;2023-07-02T10:15:08;2.47;;;1.60;;
17935;SDS011;9093;52.062;4.508;2023-07-02T10:17:54;5.70;;;1.60;;
17935;SDS011;9093;52.062;4.508;2023-07-02T10:20:39;5.90;;;1.95;;
17935;SDS011;9093;52.062;4.508;2023-07-02T10:23:20;4.88;;;1.55;;
17935;SDS011;9093;52.062;4.508;2023-07-02T10:26:14;6.15;;;1.85;;
17935;SDS011;9093;52.062;4.508;2023-07-02T10:28:59;12.95;;;2.00;;
17935;SDS011;9093;52.062;4.508;2023-07-02T10:31:47;7.00;;;1.60;;
17935;SDS011;9093;52.062;4.508;2023-07-02T10:34:32;5.47;;;1.67;;
17935;SDS011;9093;52.062;4.508;2023-07-02T10:37:13;5.78;;;1.88;;
17935;SDS011;9093;52.062;4.508;2023-07-02T10:39:54;8.27;;;1.77;;
17935;SDS011;9093;52.062;4.508;2023-07-02T10:42:50;10.73;;;2.03;;
17935;SDS011;9093;52.062;4.508;2023-07-02T10:45:31;6.30;;;1.80;;
17935;SDS011;9093;52.062;4.508;2023-07-02T10:48:13;7.43;;;1.90;;
17935;SDS011;9093;52.062;4.508;2023-07-02T10:50:53;4.95;;;1.75;;
17935;SDS011;9093;52.062;4.508;2023-07-02T10:53:33;4.50;;;1.88;;
17935;SDS011;9093;52.062;4.508;2023-07-02T10:56:17;10.35;;;2.13;;
17935;SDS011;9093;52.062;4.508;2023-07-02T10:58:57;4.70;;;1.83;;
17935;SDS011;9093;52.062;4.508;2023-07-02T11:01:38;6.57;;;2.25;;
17935;SDS011;9093;52.062;4.508;2023-07-02T11:04:18;6.37;;;2.13;;
17935;SDS011;9093;52.062;4.508;2023-07-02T11:06:59;8.98;;;2.00;;
17935;SDS011;9093;52.062;4.508;2023-07-02T11:09:39;10.05;;;1.98;;
17935;SDS011;9093;52.062;4.508;2023-07-02T11:12:30;7.70;;;2.05;;
17935;SDS011;9093;52.062;4.508;2023-07-02T11:15:14;7.60;;;2.08;;
17935;SDS011;9093;52.062;4.508;2023-07-02T11:18:08;6.55;;;1.95;;
17935;SDS011;9093;52.062;4.508;2023-07-02T11:20:49;12.43;;;2.53;;
17935;SDS011;9093;52.062;4.508;2023-07-02T11:23:29;7.82;;;2.10;;
17935;SDS011;9093;52.062;4.508;2023-07-02T11:26:14;4.90;;;1.98;;
17935;SDS011;9093;52.062;4.508;2023-07-02T11:28:55;5.35;;;2.28;;
17935;SDS011;9093;52.062;4.508;2023-07-02T11:31:35;7.47;;;2.17;;
17935;SDS011;9093;52.062;4.508;2023-07-02T11:34:16;10.57;;;2.73;;
17935;SDS011;9093;52.062;4.508;2023-07-02T11:36:57;4.60;;;1.75;;
17935;SDS011;9093;52.062;4.508;2023-07-02T11:39:38;8.27;;;2.17;;
17935;SDS011;9093;52.062;4.508;2023-07-02T11:42:18;5.35;;;2.13;;
17935;SDS011;9093;52.062;4.508;2023-07-02T11:45:00;6.75;;;2.30;;
17935;SDS011;9093;52.062;4.508;2023-07-02T11:47:41;3.08;;;1.73;;
17935;SDS011;9093;52.062;4.508;2023-07-02T11:50:21;7.40;;;2.22;;
17935;SDS011;9093;52.062;4.508;2023-07-02T11:53:01;13.63;;;2.50;;
17935;SDS011;9093;52.062;4.508;2023-07-02T11:55:42;7.53;;;2.15;;
17935;SDS011;9093;52.062;4.508;2023-07-02T11:58:23;6.73;;;2.10;;
17935;SDS011;9093;52.062;4.508;2023-07-02T12:01:03;6.15;;;1.60;;
17935;SDS011;9093;52.062;4.508;2023-07-02T12:03:44;8.35;;;1.95;;
17935;SDS011;9093;52.062;4.508;2023-07-02T12:06:28;4.35;;;2.20;;
17935;SDS011;9093;52.062;4.508;2023-07-02T12:11:49;8.52;;;2.13;;
17935;SDS011;9093;52.062;4.508;2023-07-02T12:14:29;11.23;;;2.20;;
17935;SDS011;9093;52.062;4.508;2023-07-02T12:17:10;9.93;;;2.13;;
17935;SDS011;9093;52.062;4.508;2023-07-02T12:19:53;8.98;;;2.33;;
17935;SDS011;9093;52.062;4.508;2023-07-02T12:22:33;5.70;;;1.83;;
17935;SDS011;9093;52.062;4.508;2023-07-02T12:25:14;7.65;;;1.90;;
17935;SDS011;9093;52.062;4.508;2023-07-02T12:27:54;6.20;;;2.25;;
17935;SDS011;9093;52.062;4.508;2023-07-02T12:30:34;10.35;;;2.05;;
17935;SDS011;9093;52.062;4.508;2023-07-02T12:33:15;11.82;;;2.53;;
17935;SDS011;9093;52.062;4.508;2023-07-02T12:35:55;16.42;;;3.17;;
17935;SDS011;9093;52.062;4.508;2023-07-02T12:38:35;6.90;;;2.03;;
17935;SDS011;9093;52.062;4.508;2023-07-02T12:41:16;13.47;;;2.67;;
17935;SDS011;9093;52.062;4.508;2023-07-02T12:43:56;6.65;;;2.47;;
17935;SDS011;9093;52.062;4.508;2023-07-02T12:46:36;5.70;;;2.00;;
17935;SDS011;9093;52.062;4.508;2023-07-02T12:49:17;6.95;;;1.95;;
17935;SDS011;9093;52.062;4.508;2023-07-02T12:51:57;10.43;;;2.35;;
17935;SDS011;9093;52.062;4.508;2023-07-02T12:54:37;12.50;;;2.53;;
17935;SDS011;9093;52.062;4.508;2023-07-02T12:57:18;8.63;;;2.38;;
17935;SDS011;9093;52.062;4.508;2023-07-02T12:59:58;4.82;;;1.70;;
17935;SDS011;9093;52.062;4.508;2023-07-02T13:02:38;6.65;;;2.25;;
17935;SDS011;9093;52.062;4.508;2023-07-02T13:05:18;6.47;;;2.35;;
17935;SDS011;9093;52.062;4.508;2023-07-02T13:07:59;6.13;;;2.10;;
17935;SDS011;9093;52.062;4.508;2023-07-02T13:10:39;4.70;;;1.85;;
17935;SDS011;9093;52.062;4.508;2023-07-02T13:13:20;8.75;;;2.45;;
17935;SDS011;9093;52.062;4.508;2023-07-02T13:16:00;4.72;;;1.70;;
17935;SDS011;9093;52.062;4.508;2023-07-02T13:18:40;5.55;;;2.00;;
17935;SDS011;9093;52.062;4.508;2023-07-02T13:21:20;8.35;;;2.25;;
17935;SDS011;9093;52.062;4.508;2023-07-02T13:24:01;7.07;;;2.47;;
17935;SDS011;9093;52.062;4.508;2023-07-02T13:26:41;6.88;;;2.08;;
17935;SDS011;9093;52.062;4.508;2023-07-02T13:29:21;8.50;;;2.00;;
17935;SDS011;9093;52.062;4.508;2023-07-02T13:32:02;5.28;;;2.20;;
17935;SDS011;9093;52.062;4.508;2023-07-02T13:34:42;5.18;;;2.05;;
17935;SDS011;9093;52.062;4.508;2023-07-02T13:37:22;9.25;;;2.20;;
17935;SDS011;9093;52.062;4.508;2023-07-02T13:40:03;4.55;;;1.98;;
17935;SDS011;9093;52.062;4.508;2023-07-02T13:42:45;7.23;;;1.93;;
17935;SDS011;9093;52.062;4.508;2023-07-02T13:45:25;6.63;;;2.28;;
17935;SDS011;9093;52.062;4.508;2023-07-02T13:48:06;8.73;;;2.00;;
17935;SDS011;9093;52.062;4.508;2023-07-02T13:50:46;3.58;;;1.80;;
17935;SDS011;9093;52.062;4.508;2023-07-02T13:53:26;4.88;;;2.08;;
17935;SDS011;9093;52.062;4.508;2023-07-02T13:56:07;3.83;;;1.65;;
17935;SDS011;9093;52.062;4.508;2023-07-02T13:59:08;3.35;;;1.50;;
17935;SDS011;9093;52.062;4.508;2023-07-02T14:01:47;4.25;;;1.45;;
17935;SDS011;9093;52.062;4.508;2023-07-02T14:04:28;4.63;;;1.77;;
17935;SDS011;9093;52.062;4.508;2023-07-02T14:07:09;5.88;;;1.83;;
17935;SDS011;9093;52.062;4.508;2023-07-02T14:09:49;4.60;;;1.70;;
17935;SDS011;9093;52.062;4.508;2023-07-02T14:12:29;6.32;;;1.75;;
17935;SDS011;9093;52.062;4.508;2023-07-02T14:15:10;6.32;;;1.80;;
17935;SDS011;9093;52.062;4.508;2023-07-02T14:17:50;10.13;;;2.20;;
17935;SDS011;9093;52.062;4.508;2023-07-02T14:20:31;5.70;;;1.77;;
17935;SDS011;9093;52.062;4.508;2023-07-02T14:23:11;16.17;;;2.17;;
17935;SDS011;9093;52.062;4.508;2023-07-02T14:25:51;5.43;;;1.48;;
17935;SDS011;9093;52.062;4.508;2023-07-02T14:28:32;4.80;;;1.90;;
17935;SDS011;9093;52.062;4.508;2023-07-02T14:31:12;6.03;;;2.13;;
17935;SDS011;9093;52.062;4.508;2023-07-02T14:33:52;6.22;;;2.08;;
17935;SDS011;9093;52.062;4.508;2023-07-02T14:36:33;3.50;;;1.67;;
17935;SDS011;9093;52.062;4.508;2023-07-02T14:39:13;5.68;;;1.92;;
17935;SDS011;9093;52.062;4.508;2023-07-02T14:41:53;5.00;;;1.70;;
17935;SDS011;9093;52.062;4.508;2023-07-02T14:44:34;5.00;;;2.20;;
17935;SDS011;9093;52.062;4.508;2023-07-02T14:47:17;8.75;;;1.88;;
17935;SDS011;9093;52.062;4.508;2023-07-02T14:52:37;8.93;;;2.30;;
17935;SDS011;9093;52.062;4.508;2023-07-02T14:55:18;7.47;;;2.00;;
17935;SDS011;9093;52.062;4.508;2023-07-02T14:57:58;5.10;;;1.85;;
17935;SDS011;9093;52.062;4.508;2023-07-02T15:03:25;8.93;;;2.15;;
17935;SDS011;9093;52.062;4.508;2023-07-02T15:06:08;4.10;;;2.00;;
17935;SDS011;9093;52.062;4.508;2023-07-02T15:08:52;11.13;;;2.70;;
17935;SDS011;9093;52.062;4.508;2023-07-02T15:11:33;6.72;;;2.33;;
17935;SDS011;9093;52.062;4.508;2023-07-02T15:14:13;4.85;;;2.20;;
17935;SDS011;9093;52.062;4.508;2023-07-02T15:16:53;4.32;;;2.17;;
17935;SDS011;9093;52.062;4.508;2023-07-02T15:19:34;6.82;;;2.40;;
17935;SDS011;9093;52.062;4.508;2023-07-02T15:22:14;7.07;;;2.55;;
17935;SDS011;9093;52.062;4.508;2023-07-02T15:24:54;5.17;;;2.10;;
17935;SDS011;9093;52.062;4.508;2023-07-02T15:27:35;4.20;;;1.93;;
17935;SDS011;9093;52.062;4.508;2023-07-02T15:30:15;5.63;;;2.55;;
17935;SDS011;9093;52.062;4.508;2023-07-02T15:32:56;5.15;;;1.75;;
17935;SDS011;9093;52.062;4.508;2023-07-02T15:35:36;8.63;;;2.47;;
17935;SDS011;9093;52.062;4.508;2023-07-02T15:38:16;6.18;;;2.40;;
17935;SDS011;9093;52.062;4.508;2023-07-02T15:41:11;5.38;;;2.00;;
17935;SDS011;9093;52.062;4.508;2023-07-02T15:43:53;6.43;;;2.05;;
17935;SDS011;9093;52.062;4.508;2023-07-02T15:46:35;6.65;;;2.25;;
17935;SDS011;9093;52.062;4.508;2023-07-02T15:49:15;6.45;;;2.42;;
17935;SDS011;9093;52.062;4.508;2023-07-02T15:51:55;7.55;;;2.30;;
17935;SDS011;9093;52.062;4.508;2023-07-02T15:54:36;8.73;;;2.95;;
17935;SDS011;9093;52.062;4.508;2023-07-02T15:57:16;10.48;;;2.78;;
17935;SDS011;9093;52.062;4.508;2023-07-02T15:59:57;6.90;;;2.13;;
17935;SDS011;9093;52.062;4.508;2023-07-02T16:02:37;6.57;;;2.47;;
17935;SDS011;9093;52.062;4.508;2023-07-02T16:05:17;7.85;;;2.40;;
17935;SDS011;9093;52.062;4.508;2023-07-02T16:07:57;7.22;;;2.13;;
17935;SDS011;9093;52.062;4.508;2023-07-02T16:10:42;9.88;;;2.65;;
17935;SDS011;9093;52.062;4.508;2023-07-02T16:13:23;9.27;;;3.08;;
17935;SDS011;9093;52.062;4.508;2023-07-02T16:16:04;7.13;;;2.50;;
17935;SDS011;9093;52.062;4.508;2023-07-02T16:18:45;5.53;;;2.30;;
17935;SDS011;9093;52.062;4.508;2023-07-02T16:21:25;9.95;;;2.53;;
17935;SDS011;9093;52.062;4.508;2023-07-02T16:24:15;6.13;;;2.10;;
17935;SDS011;9093;52.062;4.508;2023-07-02T16:27:05;6.88;;;2.30;;